Time;durP1;ratioP1;P1;durP2;ratioP2;P2;SDS_P1;SDS_P2;PMS_P1;PMS_P2;Temp;Humidity;BMP_temperature;BMP_pressure;BME280_temperature;BME280_humidity;BME280_pressure;Samples;Min_cycle;Max_cycle;Signal;HPM_P1;HPM_P2
2022/08/28 00:02:02;;;;;;;;;;;19.40;64.10;;;15.39;100.00;95449.94;4942547;28;20306;-48
2022/08/28 00:04:28;;;;;;;;;;;19.30;64.00;;;15.36;100.00;95445.97;4942761;28;19910;-47
2022/08/28 00:06:54;;;;;;;;;;;19.30;64.00;;;15.34;100.00;95445.47;4936321;29;19932;-47
2022/08/28 00:09:23;;;;;;;;;;;19.30;64.10;;;15.35;100.00;95443.56;4934699;29;19953;-44
2022/08/28 00:11:49;;;;;;;;;;;19.30;64.20;;;15.36;100.00;95442.50;4935000;29;19906;-42
2022/08/28 00:14:19;;;;;;;;;;;19.30;64.40;;;15.37;100.00;95442.19;4935248;29;19938;-47
2022/08/28 00:16:49;;;;;;;;;;;19.30;64.50;;;15.37;100.00;95444.88;4936095;29;19918;-47
2022/08/28 00:19:17;;;;;;;;;;;19.30;64.60;;;15.36;100.00;95443.28;4919382;29;19917;-49
2022/08/28 00:21:45;;;;;;;;;;;19.30;64.70;;;15.35;100.00;95448.94;4918902;29;19906;-49
2022/08/28 00:24:11;;;;;;;;;;;19.30;64.70;;;15.35;100.00;95449.72;4935176;29;19953;-47
2022/08/28 00:29:24;;;;;;;;;;;19.30;64.70;;;15.31;100.00;95443.38;4934935;29;19913;-48
2022/08/28 00:31:56;;;;;;;;;;;19.20;64.70;;;15.29;100.00;95456.28;4934182;28;19906;-47
2022/08/28 00:34:23;;;;;;;;;;;19.20;64.70;;;15.25;100.00;95447.25;4934517;29;20419;-49
2022/08/28 00:36:51;;;;;;;;;;;19.20;64.80;;;15.25;100.00;95453.41;4934710;29;19910;-47
2022/08/28 00:39:17;;;;;;;;;;;19.20;64.80;;;15.25;100.00;95450.72;4935569;29;19906;-47
2022/08/28 00:41:43;;;;;;;;;;;19.20;64.80;;;15.26;100.00;95446.97;4934159;29;19906;-51
2022/08/28 00:44:13;;;;;;;;;;;19.20;64.90;;;15.28;100.00;95446.66;4934753;29;19910;-50
2022/08/28 00:46:45;;;;;;;;;;;19.20;64.90;;;15.27;100.00;95432.44;4935876;29;19906;-46
2022/08/28 00:49:16;;;;;;;;;;;19.20;65.00;;;15.26;100.00;95438.91;4942620;28;20012;-50
2022/08/28 00:54:37;;;;;;;;;;;19.20;65.20;;;15.30;100.00;95441.00;4954244;28;19917;-52
2022/08/28 00:57:09;;;;;;;;;;;19.20;65.20;;;15.30;100.00;95441.78;4953520;28;20388;-48
2022/08/28 00:59:35;;;;;;;;;;;19.20;65.30;;;15.32;100.00;95453.00;4937522;28;19937;-51
2022/08/28 01:02:01;;;;;;;;;;;19.30;65.40;;;15.33;100.00;95441.19;4951201;28;19913;-45
2022/08/28 01:04:31;;;;;;;;;;;19.30;65.40;;;15.34;100.00;95442.00;4949954;28;19907;-47
2022/08/28 01:07:07;;;;;;;;;;;19.30;65.30;;;15.34;100.00;95439.31;4949906;28;19913;-52
2022/08/28 01:09:38;;;;;;;;;;;19.30;65.30;;;15.32;100.00;95442.28;4934756;28;20525;-47
2022/08/28 01:12:18;;;;;;;;;;;19.20;65.30;;;15.27;100.00;95442.38;4933199;29;19910;-48
2022/08/28 01:14:48;;;;;;;;;;;19.30;65.30;;;15.23;100.00;95441.38;4942322;28;19906;-47
2022/08/28 01:17:19;;;;;;;;;;;19.30;65.30;;;15.22;100.00;95437.09;4953115;28;20335;-46
2022/08/28 01:20:17;;;;;;;;;;;19.20;65.30;;;15.18;100.00;95436.91;4933923;29;20269;-48
2022/08/28 01:23:07;;;;;;;;;;;19.20;65.30;;;15.17;100.00;95432.66;4919541;29;19934;-47
2022/08/28 01:25:36;;;;;;;;;;;19.20;65.40;;;15.12;100.00;95429.25;4933661;29;20001;-47
2022/08/28 01:28:11;;;;;;;;;;;19.10;65.40;;;15.10;100.00;95426.84;4933769;29;19926;-47
2022/08/28 01:30:40;;;;;;;;;;;19.10;65.50;;;15.10;100.00;95426.84;4934415;29;20005;-48
2022/08/28 01:33:06;;;;;;;;;;;19.10;65.60;;;15.09;100.00;95427.94;4949582;28;20292;-48
2022/08/28 01:35:40;;;;;;;;;;;19.10;65.60;;;15.08;100.00;95430.94;4921330;29;19929;-45
2022/08/28 01:38:12;;;;;;;;;;;19.00;65.60;;;15.06;100.00;95425.88;4933504;29;19914;-47
2022/08/28 01:40:46;;;;;;;;;;;19.10;65.70;;;15.06;100.00;95419.72;4934640;29;19913;-47
2022/08/28 01:43:21;;;;;;;;;;;19.00;65.70;;;15.07;100.00;95419.41;4933525;29;20357;-48
2022/08/28 01:45:54;;;;;;;;;;;19.00;65.80;;;15.04;100.00;95423.50;4934709;29;19945;-52
2022/08/28 01:48:24;;;;;;;;;;;19.00;65.80;;;15.06;100.00;95422.38;4933198;29;19910;-50
2022/08/28 01:50:51;;;;;;;;;;;19.00;65.90;;;15.06;100.00;95428.53;4917411;29;19913;-49
2022/08/28 01:53:22;;;;;;;;;;;19.00;65.90;;;15.00;100.00;95422.47;4901594;29;19906;-48
2022/08/28 01:55:54;;;;;;;;;;;19.00;65.90;;;14.99;100.00;95423.56;4934465;29;19910;-49
2022/08/28 01:58:22;;;;;;;;;;;19.00;65.90;;;14.98;100.00;95422.00;4934476;29;20436;-51
2022/08/28 02:00:51;;;;;;;;;;;19.00;66.00;;;14.94;100.00;95426.34;4932621;29;19965;-47
2022/08/28 02:03:21;;;;;;;;;;;18.90;65.90;;;14.88;100.00;95437.44;4947151;28;19907;-50
2022/08/28 02:05:46;;;;;;;;;;;18.90;65.80;;;14.81;100.00;95429.78;4923768;28;19906;-46
2022/08/28 02:08:13;;;;;;;;;;;18.90;65.80;;;14.72;100.00;95432.34;4950043;28;19914;-46
2022/08/28 02:10:42;;;;;;;;;;;18.80;65.70;;;14.71;100.00;95428.09;4941819;28;19906;-48
2022/08/28 02:13:10;;;;;;;;;;;18.80;65.80;;;14.71;100.00;95421.94;4933074;29;20308;-46
2022/08/28 02:15:41;;;;;;;;;;;18.80;65.80;;;14.69;100.00;95419.53;4932511;29;19921;-47
2022/08/28 02:18:07;;;;;;;;;;;18.80;65.90;;;14.71;100.00;95427.28;4932750;29;20005;-49
2022/08/28 02:20:41;;;;;;;;;;;18.80;66.10;;;14.72;100.00;95418.16;4932349;29;19914;-46
2022/08/28 02:23:14;;;;;;;;;;;18.70;66.10;;;14.77;100.00;95420.75;4933217;29;19906;-45
2022/08/28 02:25:40;;;;;;;;;;;18.70;66.30;;;14.81;100.00;95411.03;4948872;28;19912;-46
2022/08/28 02:28:06;;;;;;;;;;;18.70;66.50;;;14.84;100.00;95423.84;4933995;29;19910;-46
2022/08/28 02:30:32;;;;;;;;;;;18.70;66.50;;;14.86;100.00;95428.94;4932322;29;20018;-46
2022/08/28 02:33:03;;;;;;;;;;;18.70;66.60;;;14.86;100.00;95423.56;4933872;29;19965;-45
2022/08/28 02:35:32;;;;;;;;;;;18.80;66.70;;;14.85;100.00;95430.00;4934247;28;19914;-50
2022/08/28 02:38:04;;;;;;;;;;;18.80;66.70;;;14.85;100.00;95436.16;4951730;28;19906;-46
2022/08/28 02:40:32;;;;;;;;;;;18.80;66.60;;;14.85;100.00;95432.69;4936772;28;19920;-46
2022/08/28 02:42:59;;;;;;;;;;;18.80;66.60;;;14.84;100.00;95431.88;4933823;29;20312;-48
2022/08/28 02:45:24;;;;;;;;;;;18.80;66.60;;;14.80;100.00;95430.91;4932122;29;19912;-50
2022/08/28 02:47:53;;;;;;;;;;;18.80;66.60;;;14.78;100.00;95433.84;4932346;29;19906;-48
2022/08/28 02:50:23;;;;;;;;;;;18.80;66.70;;;14.78;100.00;95431.16;4933323;29;20329;-47
2022/08/28 02:52:50;;;;;;;;;;;18.70;66.60;;;14.78;100.00;95425.03;4933482;29;19913;-50
2022/08/28 02:55:18;;;;;;;;;;;18.80;66.70;;;14.78;100.00;95438.44;4932204;29;19906;-47
2022/08/28 02:57:46;;;;;;;;;;;18.70;66.70;;;14.78;100.00;95433.84;4932569;29;19965;-45
2022/08/28 03:00:18;;;;;;;;;;;18.70;66.70;;;14.76;100.00;95438.72;4931911;29;19906;-45
2022/08/28 03:02:45;;;;;;;;;;;18.70;66.70;;;14.73;100.00;95428.59;4938297;28;19993;-47
2022/08/28 03:05:19;;;;;;;;;;;18.70;66.70;;;14.73;100.00;95431.28;4962658;28;19913;-46
2022/08/28 03:07:45;;;;;;;;;;;18.70;66.70;;;14.74;100.00;95424.81;4959880;28;19905;-47
2022/08/28 03:10:12;;;;;;;;;;;18.70;66.80;;;14.73;100.00;95430.47;4941793;28;19953;-47
2022/08/28 03:12:44;;;;;;;;;;;18.70;66.90;;;14.74;100.00;95429.38;4916503;29;20420;-52
2022/08/28 03:15:11;;;;;;;;;;;18.70;67.00;;;14.75;100.00;95434.44;4939814;29;19913;-51
2022/08/28 03:17:37;;;;;;;;;;;18.70;67.10;;;14.78;100.00;95422.34;4967434;28;19955;-51
2022/08/28 03:20:08;;;;;;;;;;;18.70;67.20;;;14.80;100.00;95428.22;4950863;29;20391;-48
2022/08/28 03:25:23;;;;;;;;;;;18.70;67.30;;;14.85;100.00;95435.34;4955825;28;19942;-52
2022/08/28 03:27:58;;;;;;;;;;;18.80;67.40;;;14.85;100.00;95430.00;4953439;28;19956;-50
2022/08/28 03:30:27;;;;;;;;;;;18.80;67.50;;;14.85;100.00;95432.69;4955813;28;19913;-50
2022/08/28 03:33:02;;;;;;;;;;;18.80;67.40;;;14.88;100.00;95429.41;4956183;28;19952;-50
2022/08/28 03:35:31;;;;;;;;;;;18.80;67.40;;;14.88;100.00;95424.84;4939092;28;19918;-51
2022/08/28 03:37:56;;;;;;;;;;;18.80;67.40;;;14.91;100.00;95432.28;4956110;28;20000;-50
2022/08/28 03:40:31;;;;;;;;;;;18.80;67.50;;;14.95;100.00;95427.16;4955805;28;20440;-48
2022/08/28 03:43:03;;;;;;;;;;;18.80;67.50;;;15.00;100.00;95432.41;4954721;28;19993;-50
2022/08/28 03:45:31;;;;;;;;;;;18.90;67.60;;;15.03;100.00;95427.25;4956121;28;19906;-46
2022/08/28 03:48:12;;;;;;;;;;;18.90;67.70;;;15.10;100.00;95439.47;4954446;28;19995;-51
2022/08/28 03:50:39;;;;;;;;;;;19.00;67.80;;;15.14;100.00;95435.91;4955784;28;19909;-47
2022/08/28 03:53:13;;;;;;;;;;;19.00;67.80;;;15.21;100.00;95424.78;4954828;28;19923;-50
2022/08/28 03:55:43;;;;;;;;;;;19.10;67.90;;;15.27;100.00;95437.81;4939362;28;19945;-47
2022/08/28 03:58:12;;;;;;;;;;;19.10;67.90;;;15.31;100.00;95437.22;4955782;28;19906;-51
2022/08/28 04:00:39;;;;;;;;;;;19.20;67.90;;;15.37;100.00;95436.81;4955374;28;19910;-52
2022/08/28 04:03:05;;;;;;;;;;;19.30;68.00;;;15.40;100.00;95438.13;4954104;28;19916;-49
2022/08/28 04:05:46;;;;;;;;;;;19.30;67.80;;;15.43;100.00;95437.50;4935368;29;19907;-50
2022/08/28 04:08:18;;;;;;;;;;;19.40;67.80;;;15.45;100.00;95435.34;4935984;29;20372;-46
2022/08/28 04:10:46;;;;;;;;;;;19.50;67.90;;;15.46;100.00;95443.09;4942250;28;19933;-48
2022/08/28 04:13:14;;;;;;;;;;;19.50;67.80;;;15.47;100.00;95441.19;4936174;29;19906;-45
2022/08/28 04:15:45;;;;;;;;;;;19.60;67.80;;;15.49;100.00;95439.81;4919421;29;19918;-49
2022/08/28 04:18:14;;;;;;;;;;;19.60;67.70;;;15.53;100.00;95440.00;4919449;29;19934;-46
2022/08/28 04:20:40;;;;;;;;;;;19.60;67.70;;;15.54;100.00;95436.22;4935962;29;19910;-48
2022/08/28 04:23:08;;;;;;;;;;;19.60;67.60;;;15.53;100.00;95433.84;4936110;29;19910;-47
2022/08/28 04:25:43;;;;;;;;;;;19.70;67.70;;;15.58;100.00;95437.22;4950791;28;19914;-47
2022/08/28 04:28:09;;;;;;;;;;;19.70;67.60;;;15.55;100.00;95439.72;4935333;29;20013;-50
2022/08/28 04:30:35;;;;;;;;;;;19.70;67.60;;;15.56;100.00;95442.09;4934508;28;19918;-50
2022/08/28 04:33:01;;;;;;;;;;;19.70;67.60;;;15.60;100.00;95442.28;4936066;29;19929;-52
2022/08/28 04:35:27;;;;;;;;;;;19.70;67.60;;;15.59;100.00;95440.69;4935810;29;19906;-47
2022/08/28 04:37:53;;;;;;;;;;;19.80;67.60;;;15.62;100.00;95440.09;4935867;29;20374;-48
2022/08/28 04:40:19;;;;;;;;;;;19.80;67.60;;;15.66;100.00;95446.44;4935393;29;19910;-49
2022/08/28 04:42:50;;;;;;;;;;;19.80;67.60;;;15.68;100.00;95453.16;4935807;29;20000;-49
2022/08/28 04:45:16;;;;;;;;;;;19.80;67.60;;;15.67;100.00;95450.78;4934826;29;19936;-47
2022/08/28 04:47:45;;;;;;;;;;;19.80;67.50;;;15.67;100.00;95445.41;4941107;28;20008;-47
2022/08/28 04:50:11;;;;;;;;;;;19.80;67.50;;;15.66;100.00;95449.91;4953407;28;20048;-49
2022/08/28 04:52:42;;;;;;;;;;;19.90;67.50;;;15.68;100.00;95446.97;4954784;28;20004;-45
2022/08/28 04:55:08;;;;;;;;;;;19.90;67.60;;;15.70;100.00;95448.28;4954863;28;19913;-48
2022/08/28 04:57:34;;;;;;;;;;;19.90;67.60;;;15.68;100.00;95450.47;4954740;28;19914;-47
2022/08/28 05:00:00;;;;;;;;;;;19.90;67.60;;;15.72;100.00;95454.13;4954429;28;19910;-53
2022/08/28 05:02:28;;;;;;;;;;;19.90;67.60;;;15.76;100.00;95454.31;4954538;28;19914;-49
2022/08/28 05:04:56;;;;;;;;;;;19.90;67.60;;;15.74;100.00;95459.22;4967106;28;19988;-47
2022/08/28 05:07:25;;;;;;;;;;;19.90;67.50;;;15.78;100.00;95467.47;4935440;29;19906;-47
2022/08/28 05:09:57;;;;;;;;;;;19.90;67.50;;;15.81;100.00;95464.97;4942110;28;20374;-47
2022/08/28 05:12:23;;;;;;;;;;;20.00;67.60;;;15.81;100.00;95464.19;4951159;28;19906;-47
2022/08/28 05:14:50;;;;;;;;;;;20.00;67.60;;;15.84;100.00;95467.06;4944374;28;19910;-47
2022/08/28 05:17:16;;;;;;;;;;;20.00;67.60;;;15.88;100.00;95467.25;4934388;28;19914;-50
2022/08/28 05:19:42;;;;;;;;;;;20.10;67.60;;;15.88;100.00;95475.28;4933962;28;19973;-49
2022/08/28 05:22:09;;;;;;;;;;;20.10;67.60;;;15.91;100.00;95469.31;4934050;29;19906;-48
2022/08/28 05:24:39;;;;;;;;;;;20.10;67.60;;;15.95;100.00;95478.38;4933876;29;20329;-50
2022/08/28 05:27:08;;;;;;;;;;;20.10;67.60;;;15.98;100.00;95488.50;4944765;28;20000;-48
2022/08/28 05:29:39;;;;;;;;;;;20.10;67.60;;;16.03;100.00;95487.63;4933203;29;19925;-47
2022/08/28 05:32:06;;;;;;;;;;;20.20;67.70;;;16.04;100.00;95491.88;4933543;29;19917;-49
2022/08/28 05:34:32;;;;;;;;;;;20.20;67.60;;;16.08;100.00;95495.59;4934948;29;19949;-47
2022/08/28 05:37:07;;;;;;;;;;;20.30;67.70;;;16.11;100.00;95497.66;4933762;29;20369;-51
2022/08/28 05:39:33;;;;;;;;;;;20.30;67.70;;;16.17;100.00;95502.63;4934449;29;19910;-47
2022/08/28 05:42:05;;;;;;;;;;;20.30;67.60;;;16.19;100.00;95495.03;4949353;28;19906;-48
2022/08/28 05:44:34;;;;;;;;;;;20.40;67.60;;;16.22;100.00;95507.09;4936034;28;19928;-47
2022/08/28 05:47:03;;;;;;;;;;;20.40;67.60;;;16.24;100.00;95496.84;4934317;28;19945;-47
2022/08/28 05:49:29;;;;;;;;;;;20.50;67.60;;;16.28;100.00;95502.41;4933957;29;19934;-45
2022/08/28 05:52:04;;;;;;;;;;;20.50;67.50;;;16.30;100.00;95503.69;4949338;28;19964;-47
2022/08/28 05:54:35;;;;;;;;;;;20.60;67.60;;;16.33;100.00;95507.69;4933064;29;20383;-46
2022/08/28 05:57:02;;;;;;;;;;;20.60;67.50;;;16.33;100.00;95513.06;4934389;29;19914;-45
2022/08/28 05:59:46;;;;;;;;;;;20.60;67.50;;;16.37;100.00;95517.50;4916645;29;19906;-47
2022/08/28 06:02:18;;;;;;;;;;;20.60;67.40;;;16.41;100.00;95517.69;4933404;29;19979;-45
2022/08/28 06:04:44;;;;;;;;;;;20.70;67.40;;;16.44;100.00;95522.47;4924268;28;20384;-45
2022/08/28 06:07:14;;;;;;;;;;;20.70;67.40;;;16.48;100.00;95519.97;4953527;28;19906;-48
2022/08/28 06:09:41;;;;;;;;;;;20.70;67.40;;;16.47;100.00;95521.84;4952656;28;20436;-46
2022/08/28 06:12:13;;;;;;;;;;;20.70;67.40;;;16.51;100.00;95524.72;4942101;28;19960;-50
2022/08/28 06:14:38;;;;;;;;;;;20.80;67.30;;;16.53;100.00;95525.22;4934216;29;19906;-48
2022/08/28 06:17:04;;;;;;;;;;;20.80;67.30;;;16.51;100.00;95536.28;4935267;28;20282;-50
2022/08/28 06:19:33;;;;;;;;;;;20.80;67.20;;;16.50;100.00;95526.63;4949979;28;20361;-49
2022/08/28 06:22:03;;;;;;;;;;;20.80;67.20;;;16.49;100.00;95524.25;4951867;28;19905;-49
2022/08/28 06:24:30;;;;;;;;;;;20.90;67.20;;;16.50;100.00;95525.84;4953410;28;20324;-50
2022/08/28 06:26:58;;;;;;;;;;;20.90;67.10;;;16.50;100.00;95523.94;4967968;28;19980;-49
2022/08/28 06:29:26;;;;;;;;;;;20.90;67.00;;;16.51;100.00;95520.16;4950506;28;20405;-46
2022/08/28 06:31:57;;;;;;;;;;;20.90;67.00;;;16.51;100.00;95528.22;4952140;28;20009;-50
2022/08/28 06:34:23;;;;;;;;;;;20.90;66.90;;;16.53;100.00;95528.72;4967927;28;19945;-48
2022/08/28 06:36:49;;;;;;;;;;;21.00;66.90;;;16.58;100.00;95541.25;4947907;28;19914;-48
2022/08/28 06:39:14;;;;;;;;;;;21.00;66.90;;;16.60;100.00;95536.34;4932093;29;19942;-50
2022/08/28 06:41:46;;;;;;;;;;;21.00;66.80;;;16.62;100.00;95536.88;4932668;29;19906;-49
2022/08/28 06:44:18;;;;;;;;;;;21.10;66.80;;;16.59;100.00;95538.25;4935586;28;19910;-48
2022/08/28 06:46:51;;;;;;;;;;;21.10;66.80;;;16.60;100.00;95537.16;4932264;29;19938;-45
2022/08/28 06:49:17;;;;;;;;;;;21.10;66.70;;;16.63;100.00;95531.16;4934063;28;19953;-50
2022/08/28 06:51:43;;;;;;;;;;;21.20;66.70;;;16.66;100.00;95533.25;4947969;28;19933;-47
2022/08/28 06:54:16;;;;;;;;;;;21.20;66.60;;;16.74;100.00;95536.34;4935835;28;20407;-48
2022/08/28 06:56:43;;;;;;;;;;;21.30;66.60;;;16.78;100.00;95543.50;4948809;28;19987;-48
2022/08/28 06:59:12;;;;;;;;;;;21.40;66.60;;;16.86;100.00;95552.75;4946133;28;19993;-50
2022/08/28 07:01:40;;;;;;;;;;;21.50;66.60;;;16.94;100.00;95556.59;4948016;28;19906;-49
2022/08/28 07:04:10;;;;;;;;;;;21.60;66.40;;;16.98;99.76;95554.88;4948238;28;19910;-47
2022/08/28 07:06:40;;;;;;;;;;;21.60;66.30;;;17.03;99.27;95562.84;4942986;28;19910;-46
2022/08/28 07:09:10;;;;;;;;;;;21.70;67.00;;;17.05;99.01;95566.81;4947071;29;19918;-47
2022/08/28 07:11:37;;;;;;;;;;;21.80;66.00;;;17.13;98.62;95559.91;4947264;29;20049;-47
2022/08/28 07:14:03;;;;;;;;;;;21.90;66.00;;;17.21;98.23;95564.56;4960280;28;19910;-47
2022/08/28 07:16:38;;;;;;;;;;;21.90;65.80;;;17.32;98.36;95567.78;4933183;29;20001;-49
2022/08/28 07:19:09;;;;;;;;;;;22.00;65.70;;;17.39;97.36;95565.44;4938680;29;19910;-48
2022/08/28 07:21:40;;;;;;;;;;;22.10;65.60;;;17.46;97.18;95563.13;4943634;29;20468;-49
2022/08/28 07:24:12;;;;;;;;;;;22.20;65.50;;;17.48;96.56;95568.19;4898536;28;21842;-48
2022/08/28 07:26:39;;;;;;;;;;;22.30;65.50;;;17.51;96.05;95564.88;4952607;28;19912;-50
2022/08/28 07:29:07;;;;;;;;;;;22.40;65.40;;;17.51;95.99;95567.56;4918795;29;19956;-46
2022/08/28 07:31:33;;;;;;;;;;;22.40;65.20;;;17.46;95.83;95570.41;4951166;29;19910;-48
2022/08/28 07:33:59;;;;;;;;;;;22.50;65.10;;;17.57;95.42;95572.50;4941433;28;19906;-47
2022/08/28 07:36:27;;;;;;;;;;;22.60;65.00;;;17.66;95.30;95564.47;4950904;28;19914;-48
2022/08/28 07:38:55;;;;;;;;;;;22.60;64.80;;;17.74;94.86;95571.03;4961012;28;19913;-46
2022/08/28 07:41:28;;;;;;;;;;;22.80;64.80;;;17.84;94.24;95572.69;4933210;29;19958;-51
2022/08/28 07:46:40;;;;;;;;;;;22.90;64.50;;;17.93;92.37;95578.91;4948152;29;19933;-44
2022/08/28 07:49:07;;;;;;;;;;;23.00;64.50;;;18.00;91.91;95576.53;4962971;28;20456;-46
2022/08/28 07:51:39;;;;;;;;;;;23.00;64.40;;;18.06;91.75;95583.38;4967085;28;19909;-48
2022/08/28 07:54:14;;;;;;;;;;;23.10;64.20;;;18.08;91.41;95585.75;4925255;29;19914;-45
2022/08/28 07:56:43;;;;;;;;;;;23.10;64.10;;;18.18;91.62;95590.88;4946455;29;19910;-49
2022/08/28 07:59:14;;;;;;;;;;;23.20;64.10;;;18.26;90.32;95590.09;4966466;28;19906;-48
2022/08/28 08:01:45;;;;;;;;;;;23.20;64.00;;;18.29;89.78;95588.69;4936849;28;20310;-47
2022/08/28 08:04:13;;;;;;;;;;;23.30;63.90;;;18.40;90.30;95590.00;4931709;29;19946;-51
2022/08/28 08:06:41;;;;;;;;;;;23.40;63.90;;;18.52;90.04;95595.56;4932091;29;19906;-50
2022/08/28 08:09:16;;;;;;;;;;;23.50;63.70;;;18.60;89.30;95589.38;4934067;29;19914;-48
2022/08/28 08:11:43;;;;;;;;;;;23.60;63.50;;;18.72;88.76;95586.88;4956232;28;20289;-47
2022/08/28 08:14:16;;;;;;;;;;;23.70;63.40;;;18.77;88.16;95599.44;4942486;28;20000;-48
2022/08/28 08:16:45;;;;;;;;;;;23.80;63.10;;;18.81;87.31;95594.22;4938812;28;19949;-51
2022/08/28 08:19:15;;;;;;;;;;;23.90;62.90;;;18.82;86.47;95595.78;4939345;28;19914;-49
2022/08/28 08:21:51;;;;;;;;;;;24.00;62.70;;;18.97;86.25;95602.63;4949678;28;19906;-46
2022/08/28 08:24:19;;;;;;;;;;;24.10;62.50;;;19.00;85.60;95602.00;4949617;28;19906;-48
2022/08/28 08:26:50;;;;;;;;;;;24.20;62.30;;;18.95;84.64;95603.72;4942001;28;19921;-48
2022/08/28 08:29:16;;;;;;;;;;;24.20;62.00;;;18.98;84.77;95604.22;4941927;28;19936;-48
2022/08/28 08:31:42;;;;;;;;;;;24.30;61.80;;;19.06;84.94;95603.44;4943685;28;19910;-47
2022/08/28 08:34:15;;;;;;;;;;;24.40;61.60;;;19.03;85.22;95612.16;4949059;28;19972;-49
2022/08/28 08:36:44;;;;;;;;;;;24.50;61.30;;;19.09;84.36;95617.06;4947825;28;19918;-45
2022/08/28 08:39:14;;;;;;;;;;;24.60;61.30;;;19.12;84.15;95619.13;4959102;28;19916;-46
2022/08/28 08:41:49;;;;;;;;;;;24.60;61.10;;;19.25;83.66;95622.00;4936288;28;20365;-49
2022/08/28 08:44:22;;;;;;;;;;;24.60;61.00;;;19.27;83.08;95625.16;4948794;28;19913;-46
2022/08/28 08:47:28;;;;;;;;;;;24.70;61.00;;;19.25;83.69;95619.28;4939828;28;20479;-49
2022/08/28 08:50:16;;;;;;;;;;;24.70;60.80;;;19.37;83.50;95616.75;4945290;28;20395;-45
2022/08/28 08:53:08;;;;;;;;;;;24.70;61.30;;;19.38;82.52;95616.41;4946083;28;20312;-50
2022/08/28 08:55:56;;;;;;;;;;;24.80;60.50;;;19.37;82.71;95619.44;4944730;28;19953;-47
2022/08/28 08:58:47;;;;;;;;;;;24.80;60.30;;;19.41;83.25;95626.56;4934062;28;19906;-49
2022/08/28 09:01:34;;;;;;;;;;;24.80;60.20;;;19.55;82.92;95628.31;4953232;28;19914;-49
2022/08/28 09:04:40;;;;;;;;;;;24.90;60.20;;;19.53;82.07;95625.94;4947562;28;19906;-47
2022/08/28 09:07:26;;;;;;;;;;;24.90;60.00;;;19.48;81.95;95620.69;4944473;28;20170;-49
2022/08/28 09:09:57;;;;;;;;;;;25.00;59.90;;;19.58;81.98;95616.84;4944708;28;19917;-48
2022/08/28 09:12:29;;;;;;;;;;;25.10;59.80;;;19.68;81.51;95621.97;4937411;28;19953;-51
2022/08/28 09:15:22;;;;;;;;;;;25.10;59.70;;;19.67;81.34;95617.66;4939402;28;20369;-46
2022/08/28 09:18:21;;;;;;;;;;;25.20;59.60;;;19.78;80.77;95626.25;4949286;28;19910;-49
2022/08/28 09:20:57;;;;;;;;;;;25.30;59.50;;;19.83;80.53;95628.75;4958051;28;19914;-50
2022/08/28 09:23:28;;;;;;;;;;;25.30;59.40;;;19.90;80.22;95626.38;4968284;28;20499;-50
2022/08/28 09:25:56;;;;;;;;;;;25.30;59.30;;;19.89;80.13;95630.16;4951379;28;19906;-49
2022/08/28 09:28:33;;;;;;;;;;;25.40;59.30;;;20.00;79.79;95630.63;4930859;28;19928;-50
2022/08/28 09:31:15;;;;;;;;;;;25.50;59.20;;;20.12;78.90;95633.44;4934771;28;19929;-50
2022/08/28 09:33:47;;;;;;;;;;;25.70;59.00;;;20.38;79.20;95622.50;4933277;28;20362;-48
2022/08/28 09:36:36;;;;;;;;;;;26.00;58.80;;;20.67;77.62;95619.03;4932965;28;19910;-47
2022/08/28 09:39:28;;;;;;;;;;;26.50;58.60;;;20.97;77.68;95625.19;4940852;28;19910;-46
2022/08/28 09:45:20;;;;;;;;;;;27.30;57.80;;;21.20;73.83;95622.94;4937391;28;19914;-47
2022/08/28 09:47:55;;;;;;;;;;;27.60;57.40;;;21.41;73.00;95628.38;4936682;28;19910;-46
2022/08/28 09:50:41;;;;;;;;;;;27.70;57.00;;;21.56;73.11;95624.28;4967055;28;19910;-50
2022/08/28 09:53:12;;;;;;;;;;;27.90;56.60;;;21.75;72.32;95628.38;4950329;28;19912;-49
2022/08/28 09:55:47;;;;;;;;;;;28.10;56.40;;;21.99;71.83;95628.44;4950256;28;19920;-49
2022/08/28 09:58:12;;;;;;;;;;;28.30;56.20;;;22.16;70.16;95630.19;4942077;28;19913;-49
2022/08/28 10:01:06;;;;;;;;;;;28.50;56.00;;;22.16;69.97;95630.97;4965887;28;19906;-51
2022/08/28 10:04:24;;;;;;;;;;;28.70;55.60;;;22.41;68.24;95628.28;4952351;28;19942;-49
2022/08/28 10:07:24;;;;;;;;;;;29.00;55.30;;;22.37;69.00;95633.59;4948694;28;19917;-50
2022/08/28 10:10:11;;;;;;;;;;;29.10;55.00;;;22.38;69.21;95631.69;4932337;29;19921;-50
2022/08/28 10:12:46;;;;;;;;;;;29.10;54.70;;;22.57;68.56;95633.84;4941229;28;20344;-52
2022/08/28 10:16:15;;;;;;;;;;;29.20;54.60;;;22.63;67.60;95632.47;4932737;29;19913;-50
2022/08/28 10:19:08;;;;;;;;;;;29.20;54.40;;;22.92;66.63;95631.41;4947724;28;19911;-50
2022/08/28 10:22:05;;;;;;;;;;;29.40;54.30;;;23.03;65.23;95618.97;4933999;29;20656;-51
2022/08/28 10:24:53;;;;;;;;;;;29.70;54.00;;;23.30;65.16;95624.78;4947927;28;19906;-51
2022/08/28 10:28:04;;;;;;;;;;;30.10;54.10;;;23.62;63.95;95635.75;4941149;28;20004;-51
2022/08/28 10:31:04;;;;;;;;;;;30.50;53.20;;;23.77;60.61;95613.28;4917764;28;21740;-47
2022/08/28 10:34:03;;;;;;;;;;;30.70;52.80;;;23.83;61.90;95611.88;4947232;28;19910;-50
2022/08/28 10:36:34;;;;;;;;;;;31.00;52.20;;;23.14;62.61;95608.41;4923199;29;20053;-50
2022/08/28 10:39:05;;;;;;;;;;;31.10;51.70;;;23.47;62.65;95623.69;4947831;28;19913;-52
2022/08/28 10:41:49;;;;;;;;;;;31.20;51.40;;;23.37;62.88;95608.66;4933553;29;20011;-50
2022/08/28 10:45:10;;;;;;;;;;;31.30;51.20;;;23.91;62.00;95618.28;4945163;28;19965;-55
2022/08/28 10:47:47;;;;;;;;;;;31.50;51.00;;;24.43;61.26;95612.63;4913298;29;19929;-52
2022/08/28 10:50:42;;;;;;;;;;;31.80;50.60;;;24.81;59.02;95607.66;4940351;28;19957;-49
2022/08/28 10:53:18;;;;;;;;;;;32.30;50.30;;;24.48;58.42;95618.97;4931776;28;20441;-50
2022/08/28 10:56:01;;;;;;;;;;;32.10;50.20;;;24.56;58.76;95610.59;4919024;29;19910;-46
2022/08/28 10:58:39;;;;;;;;;;;31.90;50.10;;;24.90;57.90;95606.31;4929196;29;19914;-49
2022/08/28 11:01:13;;;;;;;;;;;31.90;50.00;;;25.20;55.69;95600.34;4947910;28;20293;-50
2022/08/28 11:03:50;;;;;;;;;;;32.10;50.00;;;24.99;56.05;95610.78;4918353;29;20285;-54
2022/08/28 11:06:35;;;;;;;;;;;32.00;50.00;;;24.75;56.34;95609.84;4946287;28;19914;-49
2022/08/28 11:09:28;;;;;;;;;;;31.80;49.90;;;24.64;57.55;95615.06;4946926;23;20395;-52
2022/08/28 11:12:08;;;;;;;;;;;31.70;49.80;;;24.97;54.45;95608.38;4982926;28;20008;-55
2022/08/28 11:14:49;;;;;;;;;;;32.10;49.30;;;24.88;56.83;95608.59;4968084;28;19909;-50
2022/08/28 11:17:24;;;;;;;;;;;32.10;49.00;;;25.34;56.02;95611.53;4953997;28;19909;-53
2022/08/28 11:20:16;;;;;;;;;;;32.60;48.70;;;25.47;55.75;95614.13;4969592;28;20379;-50
2022/08/28 11:23:06;;;;;;;;;;;32.80;48.60;;;25.50;53.31;95616.91;4961541;28;19905;-54
2022/08/28 11:25:47;;;;;;;;;;;33.20;48.20;;;25.44;53.83;95621.06;4966229;28;19996;-53
2022/08/28 11:28:22;;;;;;;;;;;33.60;47.70;;;25.95;52.56;95609.19;4979960;28;20471;-49
2022/08/28 11:31:08;;;;;;;;;;;33.90;47.20;;;26.30;52.33;95609.81;4966901;28;20386;-52
2022/08/28 11:33:51;;;;;;;;;;;34.50;46.70;;;26.64;50.11;95611.94;4960447;28;20392;-49
2022/08/28 11:36:24;;;;;;;;;;;35.00;46.20;;;26.62;49.76;95598.63;4969193;28;19910;-49
2022/08/28 11:38:56;;;;;;;;;;;35.40;45.80;;;27.17;49.92;95601.78;4967451;28;19955;-49
2022/08/28 11:41:26;;;;;;;;;;;35.80;45.40;;;27.81;47.87;95601.75;4956600;28;19913;-51
2022/08/28 11:44:11;;;;;;;;;;;36.20;45.20;;;26.63;49.31;95600.19;4956889;28;20005;-51
2022/08/28 11:46:52;;;;;;;;;;;36.10;44.60;;;26.64;48.79;95601.78;4959730;28;19940;-53
2022/08/28 11:49:25;;;;;;;;;;;35.50;44.30;;;26.35;50.23;95602.47;4955411;28;20004;-55
2022/08/28 11:52:46;;;;;;;;;;;35.20;44.30;;;26.51;50.00;95598.47;4955436;28;20011;-50
2022/08/28 11:55:44;;;;;;;;;;;35.30;44.20;;;26.36;49.80;95593.91;4964166;28;19909;-50